Time;durP1;ratioP1;P1;durP2;ratioP2;P2;SDS_P1;SDS_P2;PMS_P1;PMS_P2;Temp;Humidity;BMP_temperature;BMP_pressure;BME280_temperature;BME280_humidity;BME280_pressure;Samples;Min_cycle;Max_cycle;Signal;HPM_P1;HPM_P2
2021/10/13 00:01:40;;;;;;;0.55;0.30;;;;;;;;;;5069172;28;20416;-77
2021/10/13 00:04:06;;;;;;;0.63;0.30;;;;;;;;;;5070706;28;20052;-76
2021/10/13 00:06:33;;;;;;;0.52;0.20;;;;;;;;;;5068511;28;20029;-77
2021/10/13 00:08:59;;;;;;;0.98;0.30;;;;;;;;;;5069185;28;20067;-77
2021/10/13 00:11:26;;;;;;;0.30;0.30;;;;;;;;;;5069706;28;20028;-78
2021/10/13 00:13:53;;;;;;;1.77;0.50;;;;;;;;;;5070521;28;20520;-77
2021/10/13 00:16:19;;;;;;;0.52;0.20;;;;;;;;;;5074400;28;20064;-77
2021/10/13 00:18:46;;;;;;;0.75;0.40;;;;;;;;;;5072692;28;20066;-78
2021/10/13 00:21:12;;;;;;;0.13;0.13;;;;;;;;;;5065027;28;20090;-77
2021/10/13 00:23:38;;;;;;;1.08;0.40;;;;;;;;;;5062416;28;20045;-77
2021/10/13 00:26:05;;;;;;;0.52;0.22;;;;;;;;;;5065884;28;20076;-77
2021/10/13 00:28:31;;;;;;;1.23;0.35;;;;;;;;;;5067041;28;20078;-78
2021/10/13 00:30:57;;;;;;;1.23;0.30;;;;;;;;;;5066803;28;20470;-78
2021/10/13 00:33:24;;;;;;;0.63;0.30;;;;;;;;;;5068742;28;20056;-77
2021/10/13 00:35:50;;;;;;;0.90;0.40;;;;;;;;;;5068461;28;20093;-77
2021/10/13 00:38:17;;;;;;;0.93;0.30;;;;;;;;;;5068393;28;20079;-78
2021/10/13 00:40:43;;;;;;;1.05;0.30;;;;;;;;;;5067962;28;20056;-78
2021/10/13 00:43:09;;;;;;;1.13;0.30;;;;;;;;;;5071925;28;20055;-77
2021/10/13 00:45:36;;;;;;;1.23;0.30;;;;;;;;;;5063546;28;20511;-78
2021/10/13 00:48:02;;;;;;;0.63;0.22;;;;;;;;;;5068677;28;20455;-78
2021/10/13 00:50:29;;;;;;;0.70;0.20;;;;;;;;;;5071819;28;20068;-78
2021/10/13 00:52:55;;;;;;;0.30;0.20;;;;;;;;;;5063460;28;20500;-78
2021/10/13 00:55:22;;;;;;;0.82;0.30;;;;;;;;;;5067435;28;20056;-81
2021/10/13 00:57:49;;;;;;;0.40;0.22;;;;;;;;;;5066008;28;20064;-78
2021/10/13 01:00:16;;;;;;;0.38;0.30;;;;;;;;;;5066992;28;20063;-78
2021/10/13 01:02:54;;;;;;;0.22;0.13;;;;;;;;;;5061510;28;20061;-78
2021/10/13 01:05:32;;;;;;;1.05;0.40;;;;;;;;;;5069425;28;20496;-78
2021/10/13 01:08:07;;;;;;;0.90;0.38;;;;;;;;;;5065462;28;20552;-76
2021/10/13 01:10:52;;;;;;;0.90;0.38;;;;;;;;;;5072212;28;20409;-77
2021/10/13 01:13:37;;;;;;;0.40;0.20;;;;;;;;;;5070781;28;20033;-78
2021/10/13 01:16:13;;;;;;;1.25;0.30;;;;;;;;;;5055332;28;21285;-78
2021/10/13 01:18:51;;;;;;;0.80;0.28;;;;;;;;;;5065725;28;20095;-77
2021/10/13 01:21:36;;;;;;;0.40;0.20;;;;;;;;;;5067937;28;20037;-78
2021/10/13 01:24:06;;;;;;;0.35;0.10;;;;;;;;;;5066868;28;22180;-78
2021/10/13 01:26:39;;;;;;;0.90;0.30;;;;;;;;;;5068549;28;20053;-78
2021/10/13 01:29:07;;;;;;;0.30;0.10;;;;;;;;;;5058148;28;20428;-78
2021/10/13 01:31:38;;;;;;;0.70;0.30;;;;;;;;;;5064503;28;20064;-77
2021/10/13 01:34:10;;;;;;;0.50;0.22;;;;;;;;;;5071553;28;21187;-78
2021/10/13 01:36:39;;;;;;;0.15;0.15;;;;;;;;;;5063613;28;20041;-78
2021/10/13 01:39:07;;;;;;;0.25;0.20;;;;;;;;;;5063164;28;22032;-79
2021/10/13 01:41:34;;;;;;;0.40;0.13;;;;;;;;;;5059336;28;20088;-77
2021/10/13 01:44:02;;;;;;;0.32;0.20;;;;;;;;;;5066508;28;20477;-77
2021/10/13 01:46:28;;;;;;;0.25;0.10;;;;;;;;;;5074162;28;20055;-78
2021/10/13 01:48:56;;;;;;;0.50;0.20;;;;;;;;;;5066665;28;20044;-78
2021/10/13 01:51:25;;;;;;;0.60;0.30;;;;;;;;;;5062266;28;20115;-77
2021/10/13 01:53:52;;;;;;;0.55;0.30;;;;;;;;;;5065787;28;20061;-78
2021/10/13 01:56:19;;;;;;;1.35;0.30;;;;;;;;;;5066016;28;20114;-77
2021/10/13 01:58:47;;;;;;;0.73;0.20;;;;;;;;;;5064557;28;20068;-77
2021/10/13 02:01:15;;;;;;;0.20;0.20;;;;;;;;;;5066624;28;20441;-76
2021/10/13 02:03:43;;;;;;;0.73;0.20;;;;;;;;;;5059248;28;20025;-78
2021/10/13 02:06:10;;;;;;;0.38;0.20;;;;;;;;;;5074575;28;20114;-77
2021/10/13 02:08:38;;;;;;;0.38;0.20;;;;;;;;;;5064764;28;20060;-77
2021/10/13 02:11:06;;;;;;;1.63;0.20;;;;;;;;;;5066007;28;21523;-77
2021/10/13 02:13:34;;;;;;;0.90;0.20;;;;;;;;;;5066182;28;20088;-77
2021/10/13 02:16:02;;;;;;;1.23;0.22;;;;;;;;;;5060228;28;20056;-77
2021/10/13 02:18:29;;;;;;;0.47;0.28;;;;;;;;;;5074223;28;20087;-77
2021/10/13 02:20:56;;;;;;;0.43;0.20;;;;;;;;;;5065697;28;20060;-77
2021/10/13 02:23:24;;;;;;;0.70;0.30;;;;;;;;;;5063276;28;20072;-77
2021/10/13 02:25:53;;;;;;;0.63;0.20;;;;;;;;;;5055556;28;20577;-78
2021/10/13 02:28:25;;;;;;;0.75;0.20;;;;;;;;;;5064084;28;20041;-78
2021/10/13 02:30:53;;;;;;;0.80;0.30;;;;;;;;;;5067891;28;20036;-77
2021/10/13 02:33:19;;;;;;;0.82;0.10;;;;;;;;;;5071815;28;20086;-75
2021/10/13 02:35:45;;;;;;;0.20;0.20;;;;;;;;;;5062639;28;20563;-76
2021/10/13 02:38:12;;;;;;;0.28;0.20;;;;;;;;;;5068220;28;20060;-77
2021/10/13 02:40:38;;;;;;;0.75;0.25;;;;;;;;;;5065727;28;20129;-77
2021/10/13 02:43:05;;;;;;;0.50;0.28;;;;;;;;;;5066100;28;20048;-77
2021/10/13 02:45:37;;;;;;;0.50;0.30;;;;;;;;;;5069857;28;20067;-77
2021/10/13 02:48:07;;;;;;;0.10;0.10;;;;;;;;;;5066072;28;20090;-77
2021/10/13 02:50:33;;;;;;;0.32;0.25;;;;;;;;;;5068185;28;20033;-77
2021/10/13 02:53:05;;;;;;;0.70;0.20;;;;;;;;;;5063896;28;20743;-77
2021/10/13 02:56:04;;;;;;;2.30;0.38;;;;;;;;;;5066483;28;20110;-78
2021/10/13 02:58:31;;;;;;;0.28;0.20;;;;;;;;;;5019046;28;20097;-78
2021/10/13 03:01:00;;;;;;;0.55;0.30;;;;;;;;;;5065004;28;20640;-78
2021/10/13 03:03:29;;;;;;;0.40;0.20;;;;;;;;;;5061216;28;20558;-78
2021/10/13 03:05:57;;;;;;;2.58;0.30;;;;;;;;;;5064294;28;20029;-78
2021/10/13 03:08:25;;;;;;;2.05;0.30;;;;;;;;;;5070398;28;20024;-78
2021/10/13 03:10:54;;;;;;;0.50;0.10;;;;;;;;;;5070717;28;20782;-78
2021/10/13 03:13:23;;;;;;;0.45;0.20;;;;;;;;;;5071767;28;20082;-78
2021/10/13 03:15:50;;;;;;;0.40;0.25;;;;;;;;;;5065601;28;20032;-79
2021/10/13 03:18:17;;;;;;;0.10;0.10;;;;;;;;;;5068773;28;20508;-78
2021/10/13 03:20:44;;;;;;;0.25;0.10;;;;;;;;;;5067988;28;20072;-77
2021/10/13 03:23:12;;;;;;;0.45;0.20;;;;;;;;;;5069613;28;20054;-77
2021/10/13 03:25:38;;;;;;;0.10;0.10;;;;;;;;;;5069155;28;20117;-76
2021/10/13 03:28:05;;;;;;;0.50;0.28;;;;;;;;;;5070853;28;20036;-78
2021/10/13 03:30:32;;;;;;;0.70;0.30;;;;;;;;;;5067040;28;20052;-77
2021/10/13 03:32:59;;;;;;;0.57;0.20;;;;;;;;;;5062808;28;20178;-78
2021/10/13 03:35:26;;;;;;;0.98;0.30;;;;;;;;;;5062791;28;20056;-78
2021/10/13 03:37:53;;;;;;;0.52;0.22;;;;;;;;;;5062293;28;20074;-77
2021/10/13 03:40:20;;;;;;;0.50;0.10;;;;;;;;;;5058760;28;20075;-77
2021/10/13 03:42:47;;;;;;;0.47;0.20;;;;;;;;;;5061856;28;20029;-78
2021/10/13 03:45:17;;;;;;;0.70;0.30;;;;;;;;;;5056734;28;20060;-78
2021/10/13 03:47:43;;;;;;;0.68;0.30;;;;;;;;;;5064713;28;20437;-77
2021/10/13 03:50:11;;;;;;;0.73;0.30;;;;;;;;;;5067855;28;20052;-78
2021/10/13 03:52:38;;;;;;;0.52;0.30;;;;;;;;;;5059331;28;20066;-78
2021/10/13 03:55:08;;;;;;;1.13;0.20;;;;;;;;;;5074446;28;20079;-77
2021/10/13 03:57:34;;;;;;;0.68;0.30;;;;;;;;;;5059380;28;20084;-77
2021/10/13 04:00:01;;;;;;;0.75;0.20;;;;;;;;;;5058917;28;20064;-77
2021/10/13 04:02:28;;;;;;;0.20;0.20;;;;;;;;;;5067587;28;20028;-77
2021/10/13 04:04:54;;;;;;;1.08;0.30;;;;;;;;;;5059871;28;20060;-78
2021/10/13 04:07:20;;;;;;;0.55;0.30;;;;;;;;;;5068307;28;20467;-77
2021/10/13 04:09:47;;;;;;;0.65;0.30;;;;;;;;;;5062307;28;20085;-78
2021/10/13 04:12:14;;;;;;;0.70;0.20;;;;;;;;;;5063537;28;20503;-77
2021/10/13 04:14:42;;;;;;;0.50;0.30;;;;;;;;;;5066140;28;20035;-77
2021/10/13 04:17:08;;;;;;;0.70;0.30;;;;;;;;;;5057974;28;20056;-78
2021/10/13 04:19:35;;;;;;;0.52;0.47;;;;;;;;;;5061589;28;20125;-77
2021/10/13 04:22:01;;;;;;;0.43;0.20;;;;;;;;;;5056289;28;20391;-77
2021/10/13 04:24:27;;;;;;;0.43;0.30;;;;;;;;;;5061094;28;20084;-78
2021/10/13 04:26:54;;;;;;;0.98;0.20;;;;;;;;;;5058686;28;20033;-78
2021/10/13 04:29:20;;;;;;;0.15;0.13;;;;;;;;;;5064180;28;20497;-80
2021/10/13 04:31:47;;;;;;;1.25;0.55;;;;;;;;;;5056760;28;20033;-79
2021/10/13 04:34:13;;;;;;;0.57;0.30;;;;;;;;;;5066073;28;20052;-80
2021/10/13 04:36:39;;;;;;;0.35;0.15;;;;;;;;;;5054934;28;20491;-79
2021/10/13 04:39:06;;;;;;;0.57;0.20;;;;;;;;;;5064042;28;20111;-79
2021/10/13 04:41:33;;;;;;;1.75;0.30;;;;;;;;;;5056492;28;20060;-79
2021/10/13 04:44:00;;;;;;;0.20;0.20;;;;;;;;;;5064337;28;20441;-78
2021/10/13 04:46:26;;;;;;;3.75;0.30;;;;;;;;;;5068327;28;20060;-78
2021/10/13 04:48:52;;;;;;;1.17;0.35;;;;;;;;;;5067494;28;20087;-78
2021/10/13 04:51:19;;;;;;;0.32;0.17;;;;;;;;;;5069906;28;20119;-78
2021/10/13 04:53:45;;;;;;;1.08;0.40;;;;;;;;;;5054721;28;20059;-78
2021/10/13 04:56:12;;;;;;;0.70;0.40;;;;;;;;;;5068124;28;20065;-78
2021/10/13 04:58:38;;;;;;;0.90;0.40;;;;;;;;;;5058133;28;20063;-77
2021/10/13 05:01:07;;;;;;;0.20;0.20;;;;;;;;;;5069545;28;20509;-78
2021/10/13 05:03:33;;;;;;;0.55;0.30;;;;;;;;;;5067538;28;20068;-78
2021/10/13 05:06:00;;;;;;;3.85;0.10;;;;;;;;;;5074863;28;20056;-77
2021/10/13 05:08:26;;;;;;;0.90;0.30;;;;;;;;;;5072826;28;20074;-77
2021/10/13 05:10:53;;;;;;;0.57;0.30;;;;;;;;;;5069479;28;20515;-77
2021/10/13 05:13:19;;;;;;;0.35;0.20;;;;;;;;;;5075419;28;20059;-77
2021/10/13 05:15:46;;;;;;;0.77;0.30;;;;;;;;;;5070481;28;20051;-77
2021/10/13 05:18:12;;;;;;;0.52;0.32;;;;;;;;;;5077292;28;20037;-78
2021/10/13 05:20:39;;;;;;;0.50;0.10;;;;;;;;;;5067594;28;20075;-76
2021/10/13 05:23:06;;;;;;;0.80;0.40;;;;;;;;;;5074041;28;20062;-77
2021/10/13 05:25:32;;;;;;;1.45;0.30;;;;;;;;;;5070193;28;20074;-77
2021/10/13 05:27:59;;;;;;;0.88;0.20;;;;;;;;;;5066970;28;20068;-77
2021/10/13 05:30:25;;;;;;;0.35;0.20;;;;;;;;;;5067668;28;20060;-78
2021/10/13 05:32:52;;;;;;;1.50;0.30;;;;;;;;;;5059529;28;20071;-76
2021/10/13 05:35:18;;;;;;;0.10;0.10;;;;;;;;;;5073375;28;20068;-78
2021/10/13 05:37:45;;;;;;;0.30;0.20;;;;;;;;;;5070173;28;20048;-78
2021/10/13 05:40:11;;;;;;;0.60;0.40;;;;;;;;;;5061228;28;20598;-77
2021/10/13 05:42:38;;;;;;;1.08;0.30;;;;;;;;;;5062646;28;20064;-78
2021/10/13 05:45:05;;;;;;;0.68;0.30;;;;;;;;;;5058611;28;20029;-77
2021/10/13 05:47:31;;;;;;;0.55;0.30;;;;;;;;;;5061259;28;20040;-78
2021/10/13 05:49:57;;;;;;;3.80;0.30;;;;;;;;;;5061331;28;20052;-78
2021/10/13 05:52:24;;;;;;;1.25;0.40;;;;;;;;;;5062751;28;20033;-78
2021/10/13 05:54:50;;;;;;;1.30;0.30;;;;;;;;;;5066982;28;20055;-78
2021/10/13 05:57:16;;;;;;;0.73;0.30;;;;;;;;;;5068032;28;20562;-79
2021/10/13 05:59:46;;;;;;;0.63;0.30;;;;;;;;;;5071513;28;20067;-81
2021/10/13 06:02:12;;;;;;;2.08;0.40;;;;;;;;;;5069809;28;20071;-80
2021/10/13 06:04:39;;;;;;;2.47;0.50;;;;;;;;;;5067995;28;20048;-78
2021/10/13 06:07:05;;;;;;;1.38;0.50;;;;;;;;;;5061410;28;20067;-77
2021/10/13 06:09:32;;;;;;;1.13;0.40;;;;;;;;;;5059438;28;20432;-76
2021/10/13 06:11:58;;;;;;;0.95;0.28;;;;;;;;;;5058362;28;20060;-78
2021/10/13 06:14:24;;;;;;;1.17;0.30;;;;;;;;;;5064891;28;20052;-77
2021/10/13 06:16:51;;;;;;;1.65;0.30;;;;;;;;;;5068336;28;20056;-77
2021/10/13 06:19:17;;;;;;;1.35;0.50;;;;;;;;;;5067456;28;20064;-76
2021/10/13 06:21:44;;;;;;;1.38;0.30;;;;;;;;;;5059326;28;20064;-76
2021/10/13 06:24:10;;;;;;;0.77;0.77;;;;;;;;;;5074152;28;20075;-76
2021/10/13 06:26:36;;;;;;;2.13;0.45;;;;;;;;;;5066457;28;20056;-76
2021/10/13 06:29:03;;;;;;;1.45;0.50;;;;;;;;;;5064254;28;20067;-76
2021/10/13 06:31:29;;;;;;;2.97;0.50;;;;;;;;;;5063669;28;20067;-76
2021/10/13 06:33:56;;;;;;;0.68;0.40;;;;;;;;;;5066295;28;20052;-77
2021/10/13 06:36:22;;;;;;;2.33;0.52;;;;;;;;;;5067525;28;20072;-76
2021/10/13 06:38:49;;;;;;;1.88;0.40;;;;;;;;;;5071345;28;20033;-76
2021/10/13 06:41:15;;;;;;;2.67;0.45;;;;;;;;;;5065833;28;20099;-77
2021/10/13 06:43:43;;;;;;;1.48;0.40;;;;;;;;;;5060314;28;20049;-77
2021/10/13 06:46:09;;;;;;;1.73;0.43;;;;;;;;;;5062533;28;20090;-77
2021/10/13 06:48:36;;;;;;;1.73;0.40;;;;;;;;;;5064468;28;20045;-77
2021/10/13 06:51:02;;;;;;;2.45;0.60;;;;;;;;;;5060604;28;20060;-76
2021/10/13 06:53:29;;;;;;;0.63;0.38;;;;;;;;;;5068308;28;20063;-77
2021/10/13 06:55:56;;;;;;;2.63;0.80;;;;;;;;;;5069781;28;20055;-77
2021/10/13 06:58:23;;;;;;;1.30;0.40;;;;;;;;;;5068279;28;20056;-76
2021/10/13 07:00:49;;;;;;;1.38;0.47;;;;;;;;;;5067793;28;20037;-77
2021/10/13 07:03:15;;;;;;;0.40;0.30;;;;;;;;;;5070874;28;20052;-78
2021/10/13 07:05:42;;;;;;;1.45;0.40;;;;;;;;;;5070697;28;20060;-77
2021/10/13 07:08:09;;;;;;;2.63;0.43;;;;;;;;;;5070093;28;20071;-77
2021/10/13 07:10:35;;;;;;;1.10;0.65;;;;;;;;;;5072544;28;20068;-76
2021/10/13 07:13:01;;;;;;;0.77;0.50;;;;;;;;;;5068679;28;20071;-76
2021/10/13 07:15:28;;;;;;;3.50;0.70;;;;;;;;;;5070600;28;20069;-76
2021/10/13 07:17:54;;;;;;;3.35;0.70;;;;;;;;;;5067966;28;20070;-78
2021/10/13 07:20:22;;;;;;;1.50;0.68;;;;;;;;;;5071493;28;20049;-76
2021/10/13 07:22:48;;;;;;;0.80;0.50;;;;;;;;;;5062429;28;20070;-77
2021/10/13 07:25:20;;;;;;;0.60;0.35;;;;;;;;;;5064007;28;20071;-76
2021/10/13 07:27:46;;;;;;;;;;;;;;;;;;5067207;28;20558;-77
2021/10/13 07:30:16;;;;;;;0.82;0.43;;;;;;;;;;5070584;28;19947;-77
2021/10/13 07:32:43;;;;;;;3.80;0.68;;;;;;;;;;5067261;28;20056;-77
2021/10/13 07:35:09;;;;;;;0.60;0.30;;;;;;;;;;5063926;28;20087;-77
2021/10/13 07:37:36;;;;;;;0.57;0.47;;;;;;;;;;5070832;28;20052;-77
2021/10/13 07:40:05;;;;;;;1.17;0.50;;;;;;;;;;5068619;28;20061;-77
2021/10/13 07:42:32;;;;;;;1.77;0.68;;;;;;;;;;5066942;28;20082;-77
2021/10/13 07:44:59;;;;;;;1.58;0.50;;;;;;;;;;5066789;28;22042;-77
2021/10/13 07:47:26;;;;;;;0.75;0.40;;;;;;;;;;5068644;28;20169;-77
2021/10/13 07:49:53;;;;;;;0.90;0.50;;;;;;;;;;5068378;28;20068;-76
2021/10/13 07:52:19;;;;;;;2.50;0.52;;;;;;;;;;5066499;28;20063;-76
2021/10/13 07:54:46;;;;;;;1.92;0.50;;;;;;;;;;5061975;28;20434;-77
2021/10/13 07:57:12;;;;;;;1.83;0.57;;;;;;;;;;5070516;28;20158;-76
2021/10/13 07:59:38;;;;;;;1.17;0.50;;;;;;;;;;5076253;28;20072;-76
2021/10/13 08:02:05;;;;;;;1.45;0.47;;;;;;;;;;5072751;28;20037;-77
2021/10/13 08:04:31;;;;;;;1.33;0.50;;;;;;;;;;5073680;28;20501;-76
2021/10/13 08:06:58;;;;;;;1.20;0.60;;;;;;;;;;5070011;28;20029;-76
2021/10/13 08:09:24;;;;;;;0.85;0.43;;;;;;;;;;5069464;28;20060;-76
2021/10/13 08:11:51;;;;;;;0.70;0.40;;;;;;;;;;5060074;28;20032;-76
2021/10/13 08:14:17;;;;;;;1.40;0.50;;;;;;;;;;5065534;28;20064;-76
2021/10/13 08:16:44;;;;;;;3.05;0.50;;;;;;;;;;5060810;28;20071;-76
2021/10/13 08:19:10;;;;;;;1.75;0.60;;;;;;;;;;5070567;28;20503;-76
2021/10/13 08:21:36;;;;;;;1.17;0.55;;;;;;;;;;5060919;28;20480;-77
2021/10/13 08:24:03;;;;;;;1.48;0.45;;;;;;;;;;5074495;28;20067;-77
2021/10/13 08:26:30;;;;;;;1.27;0.50;;;;;;;;;;5069987;28;20470;-77
2021/10/13 08:28:57;;;;;;;1.15;0.50;;;;;;;;;;5066432;28;20067;-77
2021/10/13 08:31:23;;;;;;;0.47;0.40;;;;;;;;;;5069176;28;20060;-77
2021/10/13 08:33:52;;;;;;;1.35;0.50;;;;;;;;;;5069547;28;20067;-77
2021/10/13 08:36:19;;;;;;;1.63;0.63;;;;;;;;;;5070743;28;20126;-76
2021/10/13 08:38:45;;;;;;;0.85;0.40;;;;;;;;;;5066273;28;20025;-77
2021/10/13 08:41:12;;;;;;;0.77;0.38;;;;;;;;;;5066953;28;20061;-77
2021/10/13 08:43:38;;;;;;;0.68;0.40;;;;;;;;;;5068827;28;20150;-77
2021/10/13 08:46:05;;;;;;;1.98;0.57;;;;;;;;;;5068074;28;20063;-77
2021/10/13 08:48:31;;;;;;;1.10;0.50;;;;;;;;;;5067298;28;20056;-77
2021/10/13 08:50:58;;;;;;;0.70;0.47;;;;;;;;;;5059171;28;20463;-77
2021/10/13 08:53:24;;;;;;;1.85;0.45;;;;;;;;;;5068230;28;20063;-77
2021/10/13 08:55:51;;;;;;;0.80;0.40;;;;;;;;;;5067700;28;20060;-77
2021/10/13 08:58:21;;;;;;;1.60;0.40;;;;;;;;;;5072259;28;20149;-77
2021/10/13 09:01:03;;;;;;;1.85;0.60;;;;;;;;;;5067747;28;20458;-77
2021/10/13 09:03:34;;;;;;;1.85;0.60;;;;;;;;;;5067998;28;20500;-77
2021/10/13 09:06:19;;;;;;;0.93;0.43;;;;;;;;;;5068294;28;20420;-77
2021/10/13 09:08:59;;;;;;;1.33;0.50;;;;;;;;;;5067215;28;20078;-77
2021/10/13 09:11:38;;;;;;;1.30;0.55;;;;;;;;;;5070480;28;20395;-77
2021/10/13 09:14:08;;;;;;;0.75;0.45;;;;;;;;;;5067015;28;20055;-77
2021/10/13 09:16:53;;;;;;;0.95;0.50;;;;;;;;;;5068692;28;20612;-77
2021/10/13 09:19:21;;;;;;;1.48;0.65;;;;;;;;;;5066303;28;20233;-77
2021/10/13 09:21:50;;;;;;;2.30;0.50;;;;;;;;;;5071079;28;20036;-76
2021/10/13 09:24:17;;;;;;;0.80;0.50;;;;;;;;;;5075815;28;20037;-77
2021/10/13 09:26:44;;;;;;;1.30;0.47;;;;;;;;;;5065996;28;20048;-77
2021/10/13 09:29:11;;;;;;;1.23;0.60;;;;;;;;;;5069245;28;20541;-77
2021/10/13 09:31:37;;;;;;;2.55;0.57;;;;;;;;;;5065425;28;20036;-77
2021/10/13 09:34:08;;;;;;;0.70;0.43;;;;;;;;;;5065970;28;20056;-77
2021/10/13 09:36:42;;;;;;;0.90;0.40;;;;;;;;;;5068540;28;20029;-77
2021/10/13 09:39:15;;;;;;;1.75;0.47;;;;;;;;;;5055512;28;20032;-77
2021/10/13 09:41:57;;;;;;;0.45;0.30;;;;;;;;;;5070108;28;20117;-76
2021/10/13 09:44:24;;;;;;;0.75;0.40;;;;;;;;;;5068879;28;20440;-77
2021/10/13 09:46:51;;;;;;;0.80;0.50;;;;;;;;;;5067959;28;20117;-77
2021/10/13 09:49:46;;;;;;;0.88;0.60;;;;;;;;;;5067758;28;20116;-78
2021/10/13 09:52:14;;;;;;;1.20;0.50;;;;;;;;;;5055427;28;20266;-76
2021/10/13 09:54:42;;;;;;;1.90;0.50;;;;;;;;;;5070060;28;20506;-75
2021/10/13 09:57:19;;;;;;;1.30;0.55;;;;;;;;;;5063911;28;20400;-77
2021/10/13 09:59:59;;;;;;;0.95;0.40;;;;;;;;;;5063276;28;20061;-77
2021/10/13 10:02:27;;;;;;;1.17;0.50;;;;;;;;;;5066516;28;20064;-77
2021/10/13 10:04:56;;;;;;;0.82;0.45;;;;;;;;;;5066943;28;20664;-77
2021/10/13 10:07:22;;;;;;;1.45;0.50;;;;;;;;;;5066446;28;20029;-77
2021/10/13 10:10:08;;;;;;;1.17;0.40;;;;;;;;;;5068195;28;20064;-77
2021/10/13 10:13:07;;;;;;;1.60;0.60;;;;;;;;;;5064864;28;20056;-76
2021/10/13 10:15:33;;;;;;;1.52;0.50;;;;;;;;;;5029667;28;22233;-77
2021/10/13 10:18:00;;;;;;;1.52;0.52;;;;;;;;;;5064944;28;21358;-77
2021/10/13 10:20:34;;;;;;;1.92;0.50;;;;;;;;;;5070134;28;20037;-76
2021/10/13 10:23:01;;;;;;;0.90;0.45;;;;;;;;;;5070325;28;20479;-77
2021/10/13 10:25:36;;;;;;;1.15;0.55;;;;;;;;;;5069805;28;20128;-76
2021/10/13 10:28:03;;;;;;;2.10;0.60;;;;;;;;;;5070598;28;20036;-77
2021/10/13 10:30:29;;;;;;;1.38;0.70;;;;;;;;;;5077071;28;20060;-77
2021/10/13 10:32:56;;;;;;;0.95;0.47;;;;;;;;;;5072503;28;20432;-77
2021/10/13 10:35:22;;;;;;;2.80;0.60;;;;;;;;;;5063614;28;20032;-76
2021/10/13 10:37:48;;;;;;;0.73;0.50;;;;;;;;;;5072022;28;20060;-76
2021/10/13 10:40:27;;;;;;;1.77;0.50;;;;;;;;;;5068662;28;20109;-76
2021/10/13 10:42:56;;;;;;;1.08;0.40;;;;;;;;;;5070015;28;20064;-76
2021/10/13 10:45:27;;;;;;;1.50;0.57;;;;;;;;;;5075795;28;20040;-76
2021/10/13 10:47:55;;;;;;;1.08;0.60;;;;;;;;;;5072299;28;20032;-76
2021/10/13 10:50:38;;;;;;;1.02;0.57;;;;;;;;;;5067798;28;20052;-77
2021/10/13 10:53:14;;;;;;;1.33;0.50;;;;;;;;;;5062960;28;20067;-77
2021/10/13 10:55:41;;;;;;;2.85;0.73;;;;;;;;;;5072533;28;20060;-75
2021/10/13 10:58:15;;;;;;;0.80;0.43;;;;;;;;;;5073295;28;20123;-77
2021/10/13 11:00:42;;;;;;;2.00;0.68;;;;;;;;;;5069429;28;20118;-76
2021/10/13 11:03:30;;;;;;;1.42;0.50;;;;;;;;;;5071724;28;20033;-77
2021/10/13 11:05:56;;;;;;;0.95;0.52;;;;;;;;;;5060811;28;20566;-76
2021/10/13 11:08:23;;;;;;;2.00;0.40;;;;;;;;;;5073321;28;20525;-77
2021/10/13 11:10:49;;;;;;;2.83;0.70;;;;;;;;;;5068633;28;20085;-75
2021/10/13 11:13:22;;;;;;;0.90;0.60;;;;;;;;;;5068252;28;20044;-77
2021/10/13 11:15:49;;;;;;;1.55;0.50;;;;;;;;;;5070276;28;20492;-76
2021/10/13 11:18:16;;;;;;;1.88;0.57;;;;;;;;;;5073249;28;20072;-76
2021/10/13 11:20:44;;;;;;;1.95;0.57;;;;;;;;;;5066351;28;20040;-76
2021/10/13 11:23:11;;;;;;;1.05;0.47;;;;;;;;;;5067008;28;20097;-75
2021/10/13 11:25:39;;;;;;;1.80;0.45;;;;;;;;;;5068682;28;20093;-76
2021/10/13 11:28:08;;;;;;;1.17;0.50;;;;;;;;;;5070328;28;20095;-75
2021/10/13 11:30:48;;;;;;;2.40;0.47;;;;;;;;;;5065556;28;20056;-76
2021/10/13 11:33:18;;;;;;;1.50;0.50;;;;;;;;;;5060949;28;21280;-76
2021/10/13 11:35:47;;;;;;;1.10;0.47;;;;;;;;;;5067278;28;20060;-77
2021/10/13 11:38:18;;;;;;;1.30;0.50;;;;;;;;;;5068765;28;20093;-77
2021/10/13 11:40:44;;;;;;;1.00;0.57;;;;;;;;;;5071004;28;20540;-77
2021/10/13 11:43:12;;;;;;;1.27;0.50;;;;;;;;;;5069341;28;20560;-77
2021/10/13 11:45:51;;;;;;;0.80;0.50;;;;;;;;;;5062787;28;20037;-77
2021/10/13 11:48:24;;;;;;;1.02;0.50;;;;;;;;;;5071238;28;20105;-77
2021/10/13 11:50:53;;;;;;;0.70;0.40;;;;;;;;;;5069216;28;20056;-79
2021/10/13 11:53:19;;;;;;;1.00;0.40;;;;;;;;;;5061642;28;20095;-77
2021/10/13 11:55:47;;;;;;;0.63;0.45;;;;;;;;;;5068782;28;20109;-76
2021/10/13 11:58:22;;;;;;;1.45;0.40;;;;;;;;;;5068960;28;20060;-76
2021/10/13 12:00:48;;;;;;;1.10;0.50;;;;;;;;;;5071504;28;20093;-77
2021/10/13 12:03:15;;;;;;;1.55;0.68;;;;;;;;;;5070082;28;20134;-76
2021/10/13 12:05:43;;;;;;;1.15;0.60;;;;;;;;;;5071385;28;20032;-75
2021/10/13 12:08:12;;;;;;;1.48;0.50;;;;;;;;;;5065389;28;20040;-76
2021/10/13 12:10:49;;;;;;;1.27;0.70;;;;;;;;;;5065779;28;20086;-76
2021/10/13 12:13:18;;;;;;;1.35;0.57;;;;;;;;;;5065704;28;20090;-76
2021/10/13 12:15:45;;;;;;;1.42;0.52;;;;;;;;;;5064699;28;20154;-76
2021/10/13 12:18:20;;;;;;;1.40;0.80;;;;;;;;;;5058301;28;20136;-76
2021/10/13 12:20:50;;;;;;;1.92;0.60;;;;;;;;;;5060325;28;20072;-76
2021/10/13 12:23:21;;;;;;;1.65;0.90;;;;;;;;;;5068098;28;20055;-76
2021/10/13 12:25:48;;;;;;;0.88;0.50;;;;;;;;;;5059220;28;20068;-76
2021/10/13 12:28:14;;;;;;;0.93;0.47;;;;;;;;;;5068003;28;20086;-77
2021/10/13 12:30:41;;;;;;;1.88;0.80;;;;;;;;;;5067270;28;20029;-76
2021/10/13 12:33:12;;;;;;;1.10;0.60;;;;;;;;;;5067405;28;20056;-77
2021/10/13 12:35:39;;;;;;;1.20;0.50;;;;;;;;;;5054251;28;20056;-77
2021/10/13 12:38:16;;;;;;;1.00;0.45;;;;;;;;;;5061651;28;21533;-76
2021/10/13 12:40:59;;;;;;;0.90;0.40;;;;;;;;;;5066386;28;20057;-76
2021/10/13 12:43:26;;;;;;;1.70;0.50;;;;;;;;;;5058437;28;20091;-77
2021/10/13 12:45:52;;;;;;;1.35;0.50;;;;;;;;;;5063428;28;20053;-77
2021/10/13 12:48:23;;;;;;;2.10;0.57;;;;;;;;;;5067632;28;20052;-76
2021/10/13 12:51:06;;;;;;;2.10;0.47;;;;;;;;;;5065366;28;20133;-75
2021/10/13 12:53:33;;;;;;;1.27;0.50;;;;;;;;;;5059242;28;20118;-76
2021/10/13 12:55:59;;;;;;;1.15;0.50;;;;;;;;;;5059605;28;20488;-76
2021/10/13 12:58:29;;;;;;;1.27;0.40;;;;;;;;;;5063102;28;20072;-75
2021/10/13 13:00:56;;;;;;;1.38;0.55;;;;;;;;;;5063514;28;20607;-75
2021/10/13 13:03:23;;;;;;;2.03;0.50;;;;;;;;;;5064460;28;20056;-78
2021/10/13 13:05:50;;;;;;;1.48;0.60;;;;;;;;;;5068390;28;20032;-76
2021/10/13 13:08:17;;;;;;;1.40;0.40;;;;;;;;;;5066733;28;20033;-76
2021/10/13 13:10:43;;;;;;;2.15;0.55;;;;;;;;;;5057546;28;20059;-76
2021/10/13 13:13:10;;;;;;;1.77;0.50;;;;;;;;;;5059375;28;20087;-76
2021/10/13 13:15:36;;;;;;;2.03;0.70;;;;;;;;;;5068625;28;20637;-77
2021/10/13 13:18:06;;;;;;;1.65;0.55;;;;;;;;;;5062200;28;20056;-76
2021/10/13 13:20:33;;;;;;;1.52;0.60;;;;;;;;;;5064339;28;20072;-76
2021/10/13 13:22:59;;;;;;;1.15;0.50;;;;;;;;;;5062654;28;20028;-76
2021/10/13 13:25:25;;;;;;;1.40;0.60;;;;;;;;;;5067073;28;20044;-76
2021/10/13 13:27:52;;;;;;;2.08;0.50;;;;;;;;;;5068756;28;20433;-76
2021/10/13 13:30:18;;;;;;;1.23;0.68;;;;;;;;;;5073981;28;20141;-77
2021/10/13 13:32:46;;;;;;;1.17;0.60;;;;;;;;;;5067011;28;20678;-75
2021/10/13 13:35:13;;;;;;;1.30;0.77;;;;;;;;;;5063075;28;20058;-76
2021/10/13 13:37:39;;;;;;;1.38;0.50;;;;;;;;;;5064153;28;20071;-77
2021/10/13 13:40:09;;;;;;;1.13;0.50;;;;;;;;;;5058231;28;20998;-77
2021/10/13 13:42:36;;;;;;;2.50;0.57;;;;;;;;;;5068061;28;20503;-77
2021/10/13 13:45:03;;;;;;;1.80;0.65;;;;;;;;;;5067377;28;20055;-77
2021/10/13 13:47:29;;;;;;;1.42;0.65;;;;;;;;;;5068103;28;20480;-76
2021/10/13 13:49:59;;;;;;;2.03;0.65;;;;;;;;;;5066617;28;20064;-77
2021/10/13 13:52:26;;;;;;;1.23;0.50;;;;;;;;;;5066139;28;20060;-76
2021/10/13 13:54:53;;;;;;;1.55;0.70;;;;;;;;;;5069100;28;20041;-77
2021/10/13 13:57:19;;;;;;;2.35;0.68;;;;;;;;;;5075956;28;20052;-77
2021/10/13 13:59:46;;;;;;;1.85;0.70;;;;;;;;;;5068663;28;20491;-77
2021/10/13 14:02:12;;;;;;;1.55;0.60;;;;;;;;;;5063665;28;20640;-77
2021/10/13 14:04:39;;;;;;;2.58;0.75;;;;;;;;;;5069374;28;20068;-77
2021/10/13 14:07:06;;;;;;;1.27;0.60;;;;;;;;;;5056689;28;20052;-77
2021/10/13 14:09:33;;;;;;;1.20;0.68;;;;;;;;;;5067768;28;20057;-77
2021/10/13 14:11:59;;;;;;;1.50;0.70;;;;;;;;;;5067385;28;20066;-77
2021/10/13 14:14:25;;;;;;;2.38;0.70;;;;;;;;;;5068197;28;20060;-79
2021/10/13 14:16:52;;;;;;;2.03;0.60;;;;;;;;;;5064021;28;20067;-77
2021/10/13 14:19:18;;;;;;;1.67;0.60;;;;;;;;;;5071075;28;20060;-77
2021/10/13 14:21:45;;;;;;;1.27;0.43;;;;;;;;;;5058729;28;20557;-76
2021/10/13 14:24:11;;;;;;;1.50;0.70;;;;;;;;;;5069906;28;20055;-77
2021/10/13 14:26:38;;;;;;;2.45;0.70;;;;;;;;;;5061511;28;20056;-76
2021/10/13 14:29:04;;;;;;;1.65;0.73;;;;;;;;;;5060422;28;20087;-77
2021/10/13 14:31:31;;;;;;;1.90;0.60;;;;;;;;;;5065321;28;20068;-76
2021/10/13 14:33:57;;;;;;;3.42;0.60;;;;;;;;;;5067619;28;20064;-77
2021/10/13 14:36:24;;;;;;;1.63;0.70;;;;;;;;;;5071544;28;20064;-77
2021/10/13 14:38:50;;;;;;;1.23;0.68;;;;;;;;;;5070441;28;20064;-76
2021/10/13 14:41:17;;;;;;;2.55;0.70;;;;;;;;;;5064543;28;20053;-77
2021/10/13 14:43:44;;;;;;;1.58;0.50;;;;;;;;;;5066489;28;20068;-77
2021/10/13 14:46:11;;;;;;;2.47;0.73;;;;;;;;;;5065716;28;20064;-76
2021/10/13 14:48:37;;;;;;;1.70;0.70;;;;;;;;;;5066284;28;20059;-76
2021/10/13 14:51:04;;;;;;;1.98;0.70;;;;;;;;;;5061333;28;20139;-76